Latest Weather Observations for Moss Vale

IDN60801

Issued at 8:05 pm EST Thursday 2 October 2014 (issued every 30 minutes, with the page automatically refreshed every 10 minutes)

About weather observations | Map of weather stations | Latest weather observations for NSW | Other Formats
Station Details ID: 068239 Name: MOSS VALE AWS Lat: -34.53 Lon: 150.42 Height: 678.4 m
Data from the previous 72 hours. | See also: Recent months at Moss Vale
Date/Time
EST
Temp
°C
App
Temp
°C
Dew
Point
Rel
Hum
%
Delta-T
°C
Wind Press
QNH
hPa
Press
MSL
hPa
Rain
since 9 am
mm
Dir
 
Spd
km/h
Gust
km/h
Spd
kts
Gust
kts
02/08:00pm 12.4 8.7 4.4 58 3.8 WSW 13 17 7 9 1020.9 1019.8 0.0
02/07:30pm 12.8 9.9 4.5 57 3.9 WSW 9 13 5 7 1020.7 1019.6 0.0
02/07:00pm 13.6 10.7 4.5 54 4.3 WSW 9 13 5 7 1020.3 1019.2 0.0
02/06:30pm 14.3 10.7 4.9 53 4.6 WSW 13 17 7 9 1019.9 1018.8 0.0
02/06:00pm 15.4 11.7 4.5 48 5.3 SW 13 20 7 11 1019.5 1018.3 0.0
02/05:30pm 16.6 13.2 5.9 49 5.4 WSW 13 20 7 11 1019.0 1017.9 0.0
02/05:00pm 17.6 12.8 5.5 45 6.1 WSW 20 28 11 15 1018.5 1017.3 0.0
02/04:30pm 18.1 12.9 5.7 44 6.3 WSW 22 32 12 17 1018.4 1017.2 0.0
02/04:00pm 18.6 13.1 5.8 43 6.5 W 24 35 13 19 1018.3 1017.1 0.0
02/03:30pm 18.8 13.9 5.3 41 6.8 W 20 30 11 16 1018.1 1016.9 0.0
02/03:00pm 18.8 13.5 4.9 40 6.9 W 22 32 12 17 1018.2 1017.0 0.0
02/02:30pm 19.0 14.0 4.7 39 7.1 W 20 32 11 17 1018.4 1017.2 0.0
02/02:00pm 18.8 13.6 5.6 42 6.7 W 22 30 12 16 1018.6 1017.5 0.0
02/01:30pm 18.2 12.7 4.0 39 7.0 W 22 33 12 18 1018.7 1017.6 0.0
02/01:00pm 17.8 11.9 3.7 39 6.8 WSW 24 33 13 18 1019.1 1018.0 0.0
02/12:30pm 17.5 12.4 5.8 46 5.9 WSW 22 33 12 18 1019.6 1018.4 0.0
02/12:00pm 16.8 12.3 6.0 49 5.4 W 19 26 10 14 1019.8 1018.6 0.0
02/11:00am 14.9 9.1 2.1 42 5.9 WSW 22 33 12 18 1020.6 1019.5 0.0
02/10:30am 14.0 8.6 1.0 41 5.8 WSW 19 28 10 15 1020.9 1019.8 0.0
02/10:00am 13.1 6.9 -0.2 40 5.7 WSW 22 32 12 17 1021.4 1020.3 0.0
02/09:30am 12.1 6.4 0.5 45 5.0 W 20 28 11 15 1021.5 1020.4 0.0
02/09:00am 10.7 5.4 2.0 55 3.8 W 19 26 10 14 1021.7 1020.6 0.0
02/08:30am 9.7 4.7 1.6 57 3.5 W 17 22 9 12 1021.8 1020.7 0.0
02/08:00am 8.2 3.2 1.6 63 2.8 W 17 22 9 12 1021.6 1020.5 0.0
02/07:30am 6.7 1.6 0.6 65 2.5 W 17 24 9 13 1021.6 1020.5 0.0
02/07:00am 5.3 1.0 1.2 75 1.7 W 13 17 7 9 1021.7 1020.6 0.0
02/06:30am 2.9 -1.5 0.6 85 0.9 W 13 15 7 8 1021.8 1020.7 0.0
02/06:00am 0.5 -4.0 -0.4 94 0.3 W 13 15 7 8 1021.6 1020.5 0.0
02/05:41am 0.7 -2.5 -0.2 94 0.3 WNW 6 9 3 5 1021.4 1020.3 0.0
02/05:30am 0.5 -2.9 -0.5 93 0.4 WNW 7 7 4 4 1021.4 1020.3 0.0
02/05:00am 0.7 -1.3 -0.3 93 0.4 CALM 0 0 0 0 1021.4 1020.3 0.0
02/04:30am 0.8 -1.2 -0.2 93 0.4 CALM 0 0 0 0 1021.4 1020.3 0.0
02/04:00am 0.8 -1.2 -0.3 92 0.4 CALM 0 0 0 0 1021.4 1020.3 0.0
02/03:30am 1.5 -0.4 0.3 92 0.5 CALM 0 0 0 0 1021.2 1020.1 0.0
02/03:00am 2.1 0.3 0.9 92 0.5 CALM 0 0 0 0 1021.3 1020.2 0.0
02/02:30am 1.9 0.0 0.7 92 0.5 CALM 0 0 0 0 1021.6 1020.5 0.0
02/02:13am 2.2 0.4 1.0 92 0.5 CALM 0 0 0 0 1021.7 1020.6 0.0
02/02:08am 2.4 0.6 1.2 92 0.5 CALM 0 0 0 0 1021.7 1020.6 0.0
02/02:00am 2.3 0.5 1.1 92 0.5 CALM 0 0 0 0 1021.8 1020.7 0.0
02/01:46am 2.2 0.4 1.0 92 0.5 CALM 0 0 0 0 1021.9 1020.8 0.0
02/01:30am 2.3 0.5 1.1 92 0.5 CALM 0 0 0 0 1022.2 1021.1 0.0
02/01:25am 2.2 0.4 0.9 91 0.5 CALM 0 0 0 0 1022.3 1021.2 0.0
02/01:00am 2.3 0.4 0.8 90 0.6 CALM 0 0 0 0 1022.6 1021.5 0.0
02/12:46am 2.5 -0.7 0.9 89 0.6 NNE 7 7 4 4 1022.6 1021.5 0.0
02/12:30am 2.9 0.7 1.1 88 0.7 NNE 2 7 1 4 1022.8 1021.7 0.0
02/12:00am 3.6 0.8 2.0 89 0.7 NNE 6 6 3 3 1023.1 1022.0 0.0
 
Date/Time
EST
Temp
°C
App
Temp
°C
Dew
Point
Rel
Hum
%
Delta-T
°C
Wind Press
QNH
hPa
Press
MSL
hPa
Rain
since 9 am
mm
Dir
 
Spd
km/h
Gust
km/h
Spd
kts
Gust
kts
01/11:30pm 3.5 0.7 1.9 89 0.7 N 6 9 3 5 1023.2 1022.1 0.0
01/11:00pm 3.6 1.9 1.8 88 0.7 CALM 0 0 0 0 1023.1 1022.0 0.0
01/10:30pm 3.7 1.3 2.2 90 0.6 NNW 4 7 2 4 1023.2 1022.1 0.0
01/10:00pm 4.1 1.1 2.0 86 0.9 W 7 9 4 5 1023.2 1022.1 0.0
01/09:30pm 4.9 2.1 2.3 83 1.1 WNW 6 7 3 4 1023.1 1022.0 0.0
01/09:00pm 4.6 1.7 1.5 80 1.3 WSW 6 7 3 4 1023.0 1021.9 0.0
01/08:30pm 6.4 4.3 1.9 73 1.9 WSW 2 6 1 3 1022.6 1021.5 0.0
01/08:00pm 6.6 3.7 1.7 71 2.1 W 6 6 3 3 1022.4 1021.4 0.0
01/07:30pm 7.2 4.2 0.6 63 2.7 SE 6 9 3 5 1022.1 1021.0 0.0
01/07:00pm 7.7 3.0 0.9 62 2.8 SE 15 20 8 11 1021.7 1020.6 0.0
01/06:30pm 7.9 3.9 0.6 60 3.0 SE 11 13 6 7 1021.1 1019.9 0.0
01/06:00pm 8.8 4.8 0.8 57 3.4 SE 11 15 6 8 1020.7 1019.6 0.0
01/05:30pm 9.5 5.6 1.2 56 3.6 ESE 11 13 6 7 1020.3 1019.2 0.0
01/05:00pm 10.5 5.7 0.0 48 4.4 SE 15 24 8 13 1020.3 1019.2 0.0
01/04:30pm 12.9 7.1 0.0 41 5.6 SSE 20 24 11 13 1019.7 1018.5 0.0
01/04:00pm 13.7 7.3 -1.5 35 6.4 W 22 32 12 17 1019.0 1017.9 0.0
01/03:30pm 13.6 7.8 -1.6 35 6.4 W 19 30 10 16 1018.8 1017.7 0.0
01/03:00pm 13.2 6.1 -4.4 29 6.9 W 24 30 13 16 1018.6 1017.5 0.0
01/02:30pm 13.4 6.6 -1.7 35 6.3 WSW 24 32 13 17 1018.7 1017.6 0.0
01/02:00pm 13.3 6.0 -2.6 33 6.5 WSW 26 37 14 20 1018.5 1017.3 0.0
01/01:30pm 13.4 6.7 -3.8 30 6.8 WSW 22 37 12 20 1018.5 1017.3 0.0
01/01:00pm 12.9 5.3 -5.1 28 6.9 WSW 26 39 14 21 1018.6 1017.5 0.0
01/12:30pm 12.6 3.7 -5.4 28 6.9 SW 33 43 18 23 1018.6 1017.5 0.0
01/12:14pm 12.6 3.9 -5.4 28 6.9 SW 32 50 17 27 1018.6 1017.5 0.0
01/12:00pm 12.0 2.9 -3.8 33 6.2 SW 35 50 19 27 1018.7 1017.6 0.0
01/11:30am 11.9 3.7 -0.9 41 5.4 SW 32 52 17 28 1018.7 1017.6 0.0
01/11:19am 11.7 3.6 -7.1 26 6.8 SW 28 52 15 28 1018.6 1017.5 0.0
01/11:00am 11.3 2.3 -6.5 28 6.5 WSW 33 46 18 25 1018.5 1017.3 0.0
01/10:35am 10.8 2.7 -3.3 37 5.5 SW 30 48 16 26 1018.6 1017.5 0.0
01/10:30am 11.0 2.9 -3.1 37 5.6 SW 30 44 16 24 1018.5 1017.3 0.0
01/10:00am 9.9 1.0 -5.2 34 5.6 WSW 33 48 18 26 1018.3 1017.1 0.0
01/09:30am 9.4 0.5 -5.6 34 5.5 SW 33 46 18 25 1018.4 1017.9 0.0
01/09:00am 9.0 -0.1 -3.9 40 4.9 WSW 35 46 19 25 1017.9 1017.4 0.0
01/08:30am 8.3 -1.1 -5.9 36 5.1 SW 35 59 19 32 1018.0 1017.5 0.0
01/08:01am 7.8 -1.9 -5.6 38 4.8 WSW 37 56 20 30 1017.0 1016.5 0.0
01/08:00am 7.9 -1.6 -3.6 44 4.3 WSW 37 54 20 29 1017.1 1016.6 0.0
01/07:32am 7.4 -3.2 -3.2 47 4.0 WSW 43 61 23 33 1016.3 1015.8 0.0
01/07:30am 7.2 -3.5 -2.8 49 3.8 WSW 44 61 24 33 1016.3 1015.8 0.0
01/07:01am 6.9 -1.9 -1.5 55 3.3 WSW 35 56 19 30 1016.3 1015.8 0.0
01/07:00am 6.9 -1.6 -1.5 55 3.3 WSW 33 46 18 25 1016.5 1016.0 0.0
01/06:40am 6.6 -1.8 -1.1 58 3.0 WSW 33 52 18 28 1015.9 1015.5 0.0
01/06:30am 6.5 -2.7 -1.2 58 3.0 WSW 37 52 20 28 1015.5 1015.0 0.0
01/06:13am 6.4 -2.8 -1.2 58 3.0 WSW 37 56 20 30 1015.2 1014.7 0.0
01/06:00am 6.4 -2.8 -1.2 58 3.0 WSW 37 52 20 28 1015.1 1014.6 0.0
01/05:30am 6.9 -3.1 -1.7 54 3.4 WSW 41 59 22 32 1014.2 1013.7 0.0
01/05:26am 7.0 -3.0 -1.9 53 3.5 WSW 41 59 22 32 1014.2 1013.7 0.0
01/05:00am 7.3 -2.7 -1.6 53 3.5 WSW 41 56 22 30 1014.2 1013.7 0.0
01/04:30am 8.0 -2.1 -2.6 47 4.1 WSW 41 67 22 36 1013.6 1013.1 0.0
01/04:00am 9.0 -1.6 -3.2 42 4.7 WSW 43 69 23 37 1012.9 1012.4 0.0
01/03:30am 9.8 1.5 -0.1 50 4.1 WSW 33 52 18 28 1012.6 1012.1 0.0
01/03:05am 10.3 2.4 1.2 53 3.9 WSW 32 50 17 27 1012.3 1011.8 0.0
01/03:00am 10.4 2.6 1.8 55 3.8 WSW 32 44 17 24 1012.3 1011.8 0.0
01/02:30am 11.1 4.2 4.6 64 3.1 WSW 30 44 16 24 1012.6 1012.1 0.0
01/02:00am 11.7 3.6 5.1 64 3.2 WSW 37 57 20 31 1012.2 1011.7 0.0
01/01:35am 12.4 4.3 5.1 61 3.5 WSW 37 56 20 30 1011.8 1011.2 0.0
01/01:30am 12.4 3.9 5.1 61 3.5 WSW 39 54 21 29 1012.0 1011.4 0.0
01/01:00am 13.6 5.4 4.5 54 4.4 WSW 37 59 20 32 1012.0 1011.4 0.0
01/12:31am 16.9 6.6 0.1 32 7.5 W 44 63 24 34 1010.4 1009.8 0.0
01/12:30am 17.1 6.4 -0.1 31 7.7 W 46 63 25 34 1010.2 1009.6 0.0
01/12:15am 17.8 8.3 -0.5 29 8.2 W 39 69 21 37 1010.0 1009.4 0.0
01/12:00am 18.1 10.0 -0.2 29 8.2 W 32 48 17 26 1009.5 1008.9 0.0
 
Date/Time
EST
Temp
°C
App
Temp
°C
Dew
Point
Rel
Hum
%
Delta-T
°C
Wind Press
QNH
hPa
Press
MSL
hPa
Rain
since 9 am
mm
Dir
 
Spd
km/h
Gust
km/h
Spd
kts
Gust
kts
30/11:30pm 17.4 11.6 0.1 31 7.8 W 20 35 11 19 1009.6 1009.1 0.0
30/11:00pm 17.7 10.7 -0.5 29 8.1 W 26 35 14 19 1009.8 1009.3 0.0
30/10:30pm 18.9 11.1 -0.5 27 8.7 W 30 44 16 24 1010.0 1009.4 0.0
30/10:00pm 18.8 11.6 0.9 30 8.3 W 28 39 15 21 1010.0 1009.4 0.0
30/09:38pm 19.1 11.6 1.1 30 8.4 W 30 48 16 26 1010.1 1009.5 0.0
30/09:30pm 19.1 11.2 1.1 30 8.4 W 32 48 17 26 1010.1 1009.5 0.0
30/09:00pm 19.2 10.9 2.1 32 8.1 W 35 54 19 29 1010.2 1009.6 0.0
30/08:38pm 19.6 10.7 2.9 33 8.1 W 39 57 21 31 1010.0 1009.4 0.0
30/08:30pm 19.9 10.9 2.7 32 8.3 W 39 52 21 28 1010.0 1009.4 0.0
30/08:13pm 19.9 11.7 2.7 32 8.3 W 35 54 19 29 1010.0 1009.4 0.0
30/08:00pm 20.4 11.8 2.7 31 8.6 W 37 54 20 29 1009.8 1009.3 0.0
30/07:30pm 20.8 14.1 3.5 32 8.5 W 28 52 15 28 1009.8 1009.3 0.0
30/07:28pm 20.6 13.8 3.3 32 8.5 W 28 46 15 25 1010.1 1009.5 0.0
30/07:00pm 21.2 15.2 3.4 31 8.8 WNW 24 43 13 23 1010.0 1009.4 0.0
30/06:30pm 21.6 15.3 3.8 31 8.9 WNW 26 37 14 20 1009.7 1009.2 0.0
30/06:01pm 22.2 15.6 4.3 31 9.1 WNW 28 46 15 25 1009.6 1009.1 0.0
30/06:00pm 22.2 16.0 4.3 31 9.1 WNW 26 46 14 25 1009.6 1009.1 0.0
30/05:30pm 22.7 16.2 4.7 31 9.2 WNW 28 48 15 26 1009.7 1009.2 0.0
30/05:01pm 23.2 15.7 4.2 29 9.7 WNW 33 56 18 30 1009.6 1009.1 0.0
30/05:00pm 23.1 15.7 5.1 31 9.3 WNW 33 46 18 25 1009.6 1009.1 0.0
30/04:30pm 23.8 15.1 4.2 28 10.0 WNW 39 59 21 32 1009.8 1009.3 0.0
30/04:02pm 24.3 17.3 4.1 27 10.3 W 30 50 16 27 1010.1 1009.5 0.0
30/04:00pm 24.2 17.1 5.5 30 9.8 W 32 48 17 26 1010.2 1009.6 0.0
30/03:35pm 24.5 16.5 3.8 26 10.5 W 35 57 19 31 1009.8 1009.3 0.0
30/03:30pm 24.6 16.6 3.8 26 10.6 W 35 52 19 28 1009.8 1009.3 0.0
30/03:00pm 25.2 16.8 3.8 25 11.0 W 37 57 20 31 1010.3 1009.7 0.0
30/02:30pm 25.7 17.4 2.4 22 11.6 WNW 35 65 19 35 1010.2 1009.6 0.0
30/02:00pm 25.6 16.9 4.1 25 11.1 W 39 67 21 36 1010.6 1010.0 0.0
30/01:44pm 25.5 15.9 3.5 24 11.2 W 43 74 23 40 1010.8 1010.2 0.0
30/01:30pm 25.5 17.6 4.6 26 10.9 WNW 35 56 19 30 1011.1 1010.6 0.0
30/01:00pm 25.5 17.9 4.0 25 11.1 WNW 33 54 18 29 1011.6 1011.0 0.0
30/12:30pm 25.0 16.0 2.4 23 11.2 WNW 39 63 21 34 1011.9 1011.3 0.0
30/12:00pm 24.5 15.1 2.6 24 10.9 WNW 41 67 22 36 1012.4 1011.9 0.0
30/11:30am 24.1 13.0 2.3 24 10.8 WNW 50 78 27 42 1012.7 1012.2 0.0
30/11:23am 24.0 14.1 1.6 23 10.9 WNW 43 78 23 42 1012.4 1011.9 0.0
30/11:00am 24.1 15.4 4.0 27 10.2 WNW 39 59 21 32 1013.4 1012.8 0.0
30/10:37am 23.8 16.6 5.7 31 9.5 WNW 33 52 18 28 1013.7 1013.2 0.0
30/10:30am 23.3 14.9 3.8 28 9.8 WNW 37 52 20 28 1013.6 1013.1 0.0
30/10:01am 23.0 16.0 4.0 29 9.6 WNW 30 57 16 31 1014.2 1013.7 0.0
30/10:00am 23.0 16.8 6.3 34 8.8 WNW 28 43 15 23 1014.1 1013.6 0.0
30/09:30am 22.1 13.0 4.2 31 9.0 NW 41 65 22 35 1014.3 1013.8 0.0
30/09:01am 21.6 14.4 5.9 36 8.2 NW 33 52 18 28 1014.6 1014.1 0.0
30/09:00am 21.5 13.6 4.6 33 8.6 NW 35 52 19 28 1014.6 1014.1 0.0
30/08:30am 20.8 13.9 2.6 30 8.8 WNW 28 50 15 27 1014.8 1014.3 0.0
30/08:18am 20.5 13.8 3.7 33 8.3 WNW 28 50 15 27 1014.9 1014.4 0.0
30/08:00am 20.2 15.0 3.4 33 8.2 NW 20 28 11 15 1015.0 1014.5 0.0
30/07:30am 18.9 15.5 5.7 42 6.7 N 13 15 7 8 1015.0 1014.5 0.0
30/07:00am 17.7 13.7 5.0 43 6.3 N 15 20 8 11 1015.0 1014.5 0.0
30/06:30am 16.5 12.0 4.2 44 6.0 N 17 20 9 11 1014.8 1014.3 0.0
30/06:00am 15.1 10.5 3.6 46 5.5 N 17 20 9 11 1014.6 1014.1 0.0
30/05:30am 15.7 12.2 3.5 44 5.8 N 11 15 6 8 1014.4 1013.9 0.0
30/05:00am 14.8 10.9 3.6 47 5.3 N 13 17 7 9 1014.2 1013.7 0.0
30/04:30am 15.4 10.8 3.9 46 5.5 N 17 19 9 10 1014.2 1013.7 0.0
30/04:00am 15.7 10.7 3.8 45 5.7 N 19 24 10 13 1014.3 1013.8 0.0
30/03:30am 16.2 11.2 3.6 43 6.0 N 19 26 10 14 1014.4 1013.9 0.0
30/03:00am 16.2 12.0 3.9 44 5.9 N 15 19 8 10 1014.8 1014.3 0.0
30/02:30am 16.1 11.5 3.9 44 5.9 N 17 22 9 12 1015.1 1014.6 0.0
30/02:00am 16.2 11.8 4.6 46 5.7 N 17 24 9 13 1015.3 1014.8 0.0
30/01:30am 15.1 11.0 4.5 49 5.1 NNW 15 20 8 11 1015.6 1015.1 0.0
30/01:00am 14.7 11.0 4.7 51 4.8 N 13 17 7 9 1015.8 1015.3 0.0
30/12:30am 15.5 13.4 5.7 52 4.9 N 6 13 3 7 1016.0 1015.6 0.0
30/12:00am 13.9 11.9 6.3 60 3.8 N 6 7 3 4 1016.3 1015.8 0.0
 
Date/Time
EST
Temp
°C
App
Temp
°C
Dew
Point
Rel
Hum
%
Delta-T
°C
Wind Press
QNH
hPa
Press
MSL
hPa
Rain
since 9 am
mm
Dir
 
Spd
km/h
Gust
km/h
Spd
kts
Gust
kts
29/11:30pm 13.2 11.1 6.5 64 3.3 N 7 11 4 6 1016.5 1016.0 0.0
29/11:00pm 12.8 10.6 6.4 65 3.2 NNE 7 13 4 7 1016.7 1016.2 0.0
29/10:30pm 13.0 10.9 6.6 65 3.2 NNE 7 11 4 6 1016.8 1016.3 0.0
29/10:00pm 12.2 9.4 7.1 71 2.5 NNE 11 13 6 7 1017.0 1016.5 0.0
29/09:30pm 12.8 10.5 7.3 69 2.8 NE 9 11 5 6 1017.1 1016.6 0.0
29/09:00pm 13.5 10.7 7.1 65 3.2 NE 11 13 6 7 1017.1 1016.6 0.0
29/08:30pm 14.2 11.9 7.3 63 3.5 ENE 9 11 5 6 1017.2 1016.8 0.0

Other Formats:

Comma delimited format used in spreadsheet applications
http://www.bom.gov.au/fwo/IDN60801/IDN60801.94746.axf

JavaScript Object Notation format (JSON) in row-major order
http://www.bom.gov.au/fwo/IDN60801/IDN60801.94746.json